createdAt,value
2017-06-08T00:00:40.623Z,73.30
2017-06-08T00:03:08.087Z,73.60
2017-06-08T00:05:35.542Z,72.90
2017-06-08T00:08:03.007Z,73.70
2017-06-08T00:10:31.266Z,73.10
2017-06-08T00:12:58.707Z,73.10
2017-06-08T00:15:26.278Z,74.50
2017-06-08T00:17:53.734Z,75.70
2017-06-08T00:20:21.207Z,73.70
2017-06-08T00:22:48.752Z,75.50
2017-06-08T00:25:16.199Z,73.20
2017-06-08T00:27:43.658Z,73.70
2017-06-08T00:30:11.106Z,74.00
2017-06-08T00:32:38.563Z,75.70
2017-06-08T00:35:06.015Z,75.90
2017-06-08T00:37:33.491Z,76.80
2017-06-08T00:40:01.051Z,76.30
2017-06-08T00:42:28.504Z,77.70
2017-06-08T00:44:55.972Z,77.20
2017-06-08T00:47:23.415Z,77.10
2017-06-08T00:49:50.873Z,79.60
2017-06-08T00:52:18.327Z,80.10
2017-06-08T00:54:45.882Z,77.30
2017-06-08T00:57:13.330Z,77.50
2017-06-08T00:59:40.783Z,78.50
2017-06-08T01:02:08.254Z,77.80
2017-06-08T01:04:35.719Z,78.10
2017-06-08T01:07:03.162Z,82.30
2017-06-08T01:09:30.623Z,80.30
2017-06-08T01:11:58.183Z,79.60
2017-06-08T01:14:25.744Z,82.60
2017-06-08T01:16:53.203Z,80.10
2017-06-08T01:19:20.654Z,80.30
2017-06-08T01:21:48.139Z,80.30
2017-06-08T01:24:16.386Z,79.90
2017-06-08T01:26:43.838Z,79.90
2017-06-08T01:29:11.399Z,80.30
2017-06-08T01:31:38.850Z,81.10
2017-06-08T01:34:06.303Z,82.40
2017-06-08T01:36:33.760Z,83.80
2017-06-08T01:39:01.222Z,82.50
2017-06-08T01:41:28.670Z,82.50
2017-06-08T01:43:56.243Z,82.40
2017-06-08T01:46:23.690Z,85.90
2017-06-08T01:48:51.147Z,84.60
2017-06-08T01:51:18.604Z,82.60
2017-06-08T01:53:46.071Z,83.80
2017-06-08T01:56:13.630Z,83.50
2017-06-08T01:58:41.109Z,84.00
2017-06-08T02:01:09.335Z,81.90
2017-06-08T02:03:36.782Z,81.80
2017-06-08T02:06:04.270Z,81.80
2017-06-08T02:08:31.722Z,81.40
2017-06-08T02:10:59.175Z,82.20
2017-06-08T02:13:26.626Z,83.00
2017-06-08T02:15:54.079Z,81.60
2017-06-08T02:18:21.535Z,81.60
2017-06-08T02:20:49.110Z,81.40
2017-06-08T02:23:16.568Z,83.90
2017-06-08T02:25:44.025Z,82.70
2017-06-08T02:28:11.486Z,82.30
2017-06-08T02:30:38.941Z,82.60
2017-06-08T02:33:06.404Z,85.30
2017-06-08T02:35:33.867Z,81.50
2017-06-08T02:38:01.319Z,83.00
2017-06-08T02:40:29.543Z,82.00
2017-06-08T02:42:56.996Z,81.90
2017-06-08T02:45:24.459Z,83.70
2017-06-08T02:47:51.953Z,83.80
2017-06-08T02:50:19.407Z,83.60
2017-06-08T02:52:46.869Z,83.70
2017-06-08T02:55:14.318Z,84.40
2017-06-08T02:57:41.779Z,84.90
2017-06-08T03:00:09.232Z,83.60
2017-06-08T03:02:36.699Z,85.60
2017-06-08T03:05:04.143Z,86.00
2017-06-08T03:07:31.611Z,86.10
2017-06-08T03:09:59.060Z,89.30
2017-06-08T03:12:26.510Z,85.90
2017-06-08T03:14:53.967Z,83.90
2017-06-08T03:17:21.518Z,84.50
2017-06-08T03:19:48.971Z,85.70
2017-06-08T03:22:16.447Z,87.10
2017-06-08T03:24:43.884Z,86.30
2017-06-08T03:27:11.334Z,84.10
2017-06-08T03:29:38.791Z,84.00
2017-06-08T03:32:06.271Z,82.50
2017-06-08T03:34:33.723Z,83.80
2017-06-08T03:37:01.280Z,81.40
2017-06-08T03:39:28.741Z,83.60
2017-06-08T03:41:56.187Z,82.90
2017-06-08T03:44:23.750Z,81.80
2017-06-08T03:46:51.212Z,80.70
2017-06-08T03:49:18.761Z,80.90
2017-06-08T03:51:46.206Z,81.40
2017-06-08T03:54:13.683Z,81.10
2017-06-08T03:56:41.138Z,79.40
2017-06-08T03:59:08.602Z,80.10
2017-06-08T04:01:36.052Z,81.60
2017-06-08T04:04:03.502Z,82.40
2017-06-08T04:06:30.973Z,80.60
2017-06-08T04:08:58.518Z,79.10
2017-06-08T04:11:25.976Z,79.70
2017-06-08T04:13:53.539Z,76.50
2017-06-08T04:16:21.006Z,75.50
2017-06-08T04:18:49.261Z,74.80
2017-06-08T04:21:16.790Z,74.70
2017-06-08T04:23:44.282Z,70.80
2017-06-08T04:26:11.750Z,65.00
2017-06-08T04:28:39.976Z,53.00
2017-06-08T07:32:35.786Z,48.00
2017-06-08T07:35:04.160Z,46.90
2017-06-08T07:37:31.631Z,48.40
2017-06-08T07:39:59.184Z,48.60
2017-06-08T07:42:27.559Z,47.10
2017-06-08T07:44:55.007Z,48.80
2017-06-08T07:47:22.570Z,48.70
2017-06-08T07:49:50.030Z,45.70
2017-06-08T07:52:17.478Z,48.60
2017-06-08T07:54:50.636Z,47.40
2017-06-08T07:57:18.097Z,48.60
2017-06-08T07:59:45.547Z,46.20
2017-06-08T08:02:24.839Z,44.80
2017-06-08T08:04:53.062Z,45.70
2017-06-08T08:07:20.555Z,45.70
2017-06-08T08:09:48.013Z,45.80
2017-06-08T08:12:15.462Z,46.00
2017-06-08T08:14:42.923Z,45.90
2017-06-08T08:17:10.371Z,46.60
2017-06-08T08:19:37.825Z,47.60
2017-06-08T08:22:05.287Z,47.50
2017-06-08T08:24:33.463Z,46.60
2017-06-08T08:27:00.919Z,48.20
2017-06-08T08:29:28.383Z,46.00
2017-06-08T08:31:55.940Z,44.60
2017-06-08T08:34:23.496Z,44.90
2017-06-08T08:36:50.955Z,47.70
2017-06-08T08:39:18.418Z,47.80
2017-06-08T08:41:45.867Z,43.80
2017-06-08T08:44:13.322Z,44.30
2017-06-08T08:46:40.794Z,44.80
2017-06-08T08:49:08.327Z,44.10
2017-06-08T08:51:35.779Z,45.50
2017-06-08T08:54:03.351Z,44.70
2017-06-08T08:56:30.824Z,44.30
2017-06-08T08:58:59.086Z,43.00
2017-06-08T09:01:26.538Z,42.90
2017-06-08T09:03:53.998Z,42.80
2017-06-08T09:06:21.458Z,44.10
2017-06-08T09:08:48.919Z,43.10
2017-06-08T09:11:16.467Z,42.80
2017-06-08T09:13:43.923Z,42.00
2017-06-08T09:16:11.375Z,42.40
2017-06-08T09:18:38.827Z,41.00
2017-06-08T09:21:06.279Z,40.30
2017-06-08T09:23:33.738Z,41.60
2017-06-08T09:26:01.298Z,40.70
2017-06-08T09:28:28.747Z,39.50
2017-06-08T09:30:56.199Z,41.20
2017-06-08T09:33:23.674Z,42.50
2017-06-08T09:35:51.124Z,41.10
2017-06-08T09:38:18.686Z,40.60
2017-06-08T09:40:46.147Z,41.50
2017-06-08T09:43:13.603Z,40.50
2017-06-08T09:45:41.060Z,39.60
2017-06-08T09:48:08.511Z,43.70
2017-06-08T09:50:36.073Z,40.40
2017-06-08T09:53:03.526Z,41.70
2017-06-08T09:55:30.982Z,42.00
2017-06-08T09:57:58.443Z,41.60
2017-06-08T10:00:25.900Z,42.10
2017-06-08T10:02:53.350Z,41.00
2017-06-08T10:05:20.910Z,41.40
2017-06-08T10:07:48.474Z,39.60
2017-06-08T10:10:16.032Z,40.20
2017-06-08T10:12:43.491Z,40.20
2017-06-08T10:15:11.044Z,39.10
2017-06-08T10:17:38.506Z,41.40
2017-06-08T10:20:06.051Z,38.90
2017-06-08T10:22:33.503Z,41.70
2017-06-08T10:25:00.959Z,41.50
2017-06-08T10:27:28.434Z,39.80
2017-06-08T10:29:55.895Z,38.60
2017-06-08T10:32:23.338Z,38.80
2017-06-08T10:34:50.790Z,43.80
2017-06-08T10:37:18.247Z,41.20
2017-06-08T10:39:45.824Z,40.00
2017-06-08T10:42:13.267Z,39.90
2017-06-08T10:44:40.722Z,40.00
2017-06-08T10:47:08.184Z,39.40
2017-06-08T10:49:35.636Z,39.70
2017-06-08T10:52:03.115Z,38.90
2017-06-08T10:54:31.340Z,39.00
2017-06-08T10:56:58.791Z,38.90
2017-06-08T10:59:26.243Z,37.20
2017-06-08T11:01:53.738Z,38.50
2017-06-08T11:04:21.187Z,39.90
2017-06-08T11:06:48.643Z,38.00
2017-06-08T11:09:16.211Z,38.80
2017-06-08T11:11:43.763Z,35.90
2017-06-08T11:14:11.220Z,38.00
2017-06-08T11:16:38.662Z,37.50
2017-06-08T11:19:06.120Z,38.00
2017-06-08T11:21:33.594Z,38.40
2017-06-08T11:24:01.047Z,38.20
2017-06-08T11:26:28.503Z,40.70
2017-06-08T11:28:56.160Z,37.50
2017-06-08T11:31:23.607Z,39.30
2017-06-08T11:33:51.066Z,37.00
2017-06-08T11:36:18.519Z,38.80
2017-06-08T11:38:46.091Z,36.90
2017-06-08T11:41:13.642Z,39.20
2017-06-08T11:43:41.202Z,37.50
2017-06-08T11:46:08.650Z,39.50
2017-06-08T11:48:36.224Z,37.90
2017-06-08T11:51:04.196Z,39.20
2017-06-08T11:53:31.758Z,36.50
2017-06-08T11:55:59.207Z,38.30
2017-06-08T11:58:26.654Z,37.80
2017-06-08T12:00:54.217Z,37.40
2017-06-08T12:03:21.778Z,36.70
2017-06-08T12:05:49.340Z,38.40
2017-06-08T12:08:16.799Z,40.40
2017-06-08T12:10:44.256Z,40.20
2017-06-08T12:13:11.811Z,38.60
2017-06-08T12:15:39.286Z,35.40
2017-06-08T12:18:07.502Z,40.50
2017-06-08T12:20:34.999Z,40.10
2017-06-08T12:23:02.458Z,36.50
2017-06-08T12:25:29.911Z,36.20
2017-06-08T12:27:57.360Z,41.40
2017-06-08T12:30:24.819Z,40.00
2017-06-08T12:32:52.379Z,39.70
2017-06-08T12:35:19.830Z,37.90
2017-06-08T12:37:47.287Z,35.90
2017-06-08T12:40:14.739Z,38.80
2017-06-08T12:42:42.191Z,37.10
2017-06-08T12:45:09.663Z,34.40
2017-06-08T12:47:37.125Z,36.20
2017-06-08T12:50:04.674Z,37.50
2017-06-08T12:52:32.233Z,35.60
2017-06-08T12:54:59.682Z,36.20
2017-06-08T12:57:27.215Z,34.10
2017-06-08T12:59:54.674Z,40.70
2017-06-08T13:02:22.163Z,39.10
2017-06-08T13:04:49.619Z,36.60
2017-06-08T13:07:17.071Z,35.00
2017-06-08T13:09:44.633Z,34.30
2017-06-08T13:12:12.188Z,40.20
2017-06-08T13:14:39.751Z,37.50
2017-06-08T13:17:07.204Z,39.30
2017-06-08T13:19:34.771Z,37.90
2017-06-08T13:22:02.223Z,36.80
2017-06-08T13:24:29.684Z,40.30
2017-06-08T13:26:57.240Z,36.10
2017-06-08T13:29:24.706Z,38.10
2017-06-08T13:31:52.248Z,35.10
2017-06-08T13:34:19.806Z,38.00
2017-06-08T13:36:47.267Z,38.50
2017-06-08T13:39:14.723Z,33.60
2017-06-08T13:41:42.282Z,36.40
2017-06-08T13:44:09.738Z,37.50
2017-06-08T13:46:37.298Z,35.80
2017-06-08T13:49:04.755Z,37.80
2017-06-08T13:51:32.315Z,37.10
2017-06-08T13:53:59.765Z,35.70
2017-06-08T13:56:27.220Z,34.30
2017-06-08T13:58:54.666Z,33.90
2017-06-08T14:01:22.139Z,34.30
2017-06-08T14:03:49.599Z,34.60
2017-06-08T14:06:17.055Z,39.10
2017-06-08T14:08:44.517Z,33.50
2017-06-08T14:11:12.059Z,38.30
2017-06-08T14:13:39.514Z,40.60
2017-06-08T14:16:06.963Z,37.20
2017-06-08T14:18:34.419Z,36.60
2017-06-08T14:21:01.877Z,36.00
2017-06-08T14:23:29.347Z,36.80
2017-06-08T14:25:56.802Z,34.80
2017-06-08T14:28:24.260Z,33.00
2017-06-08T14:30:51.720Z,34.70
2017-06-08T14:33:19.172Z,33.80
2017-06-08T14:35:46.630Z,37.40
2017-06-08T14:38:14.088Z,34.30
2017-06-08T14:40:41.535Z,36.60
2017-06-08T14:43:09.093Z,36.00
2017-06-08T14:45:36.654Z,39.30
2017-06-08T14:48:04.103Z,33.90
2017-06-08T14:50:31.666Z,37.30
2017-06-08T14:52:59.223Z,39.80
2017-06-08T14:55:26.790Z,38.90
2017-06-08T14:57:54.247Z,35.70
2017-06-08T15:00:21.703Z,35.30
2017-06-08T15:02:49.159Z,34.20
2017-06-08T15:05:16.614Z,33.40
2017-06-08T15:07:44.068Z,36.30
2017-06-08T15:10:11.626Z,33.30
2017-06-08T15:12:39.183Z,38.10
2017-06-08T15:15:06.746Z,34.00
2017-06-08T15:17:34.303Z,36.70
2017-06-08T15:20:01.763Z,33.70
2017-06-08T15:22:29.211Z,36.70
2017-06-08T15:24:56.662Z,35.50
2017-06-08T15:27:24.116Z,36.30
2017-06-08T15:29:51.571Z,36.80
2017-06-08T15:32:19.031Z,32.40
2017-06-08T15:34:46.498Z,34.50
2017-06-08T15:37:13.950Z,34.20
2017-06-08T15:39:41.507Z,31.90
2017-06-08T15:42:09.075Z,34.70
2017-06-08T15:44:36.521Z,33.60
2017-06-08T15:47:03.971Z,31.80
2017-06-08T15:49:31.423Z,34.80
2017-06-08T15:51:58.997Z,32.30
2017-06-08T15:54:26.451Z,33.60
2017-06-08T15:56:53.898Z,34.80
2017-06-08T15:59:21.351Z,33.30
2017-06-08T16:01:48.802Z,34.40
2017-06-08T16:04:16.252Z,32.20
2017-06-08T16:06:43.739Z,32.30
2017-06-08T16:09:11.188Z,33.10
2017-06-08T16:11:38.750Z,33.40
2017-06-08T16:14:06.200Z,32.80
2017-06-08T16:16:33.651Z,31.60
2017-06-08T16:19:01.124Z,34.80
2017-06-08T16:21:28.571Z,34.00
2017-06-08T16:23:56.135Z,33.00
2017-06-08T16:26:23.595Z,34.30
2017-06-08T16:28:51.066Z,32.70
2017-06-08T16:31:19.325Z,36.80
2017-06-08T16:33:46.774Z,36.70
2017-06-08T16:36:14.223Z,32.80
2017-06-08T16:38:41.690Z,33.00
2017-06-08T16:41:09.147Z,35.00
2017-06-08T16:43:36.603Z,32.40
2017-06-08T16:46:04.055Z,32.80
2017-06-08T16:48:31.611Z,32.60
2017-06-08T16:50:59.058Z,32.00
2017-06-08T16:53:26.515Z,31.40
2017-06-08T16:55:53.966Z,30.40
2017-06-08T16:58:21.419Z,31.10
2017-06-08T17:00:48.888Z,31.00
2017-06-08T17:03:16.353Z,29.50
2017-06-08T17:05:43.804Z,31.40
2017-06-08T17:08:11.375Z,32.10
2017-06-08T17:10:38.826Z,32.00
2017-06-08T17:13:06.287Z,29.60
2017-06-08T17:15:33.743Z,29.40
2017-06-08T17:18:01.292Z,28.90
2017-06-08T17:20:28.853Z,28.80
2017-06-08T17:22:56.578Z,28.60
2017-06-08T17:25:24.080Z,30.40
2017-06-08T17:27:51.534Z,31.20
2017-06-08T17:30:18.983Z,31.30
2017-06-08T17:32:46.435Z,32.30
2017-06-08T17:35:14.007Z,32.70
2017-06-08T17:37:41.471Z,34.60
2017-06-08T17:40:09.013Z,34.30
2017-06-08T17:42:36.464Z,33.90
2017-06-08T17:45:04.023Z,35.20
2017-06-08T17:47:31.592Z,34.70
2017-06-08T17:49:59.050Z,34.10
2017-06-08T17:52:26.503Z,34.90
2017-06-08T17:54:53.958Z,35.60
2017-06-08T17:57:21.414Z,35.50
2017-06-08T17:59:48.870Z,36.20
2017-06-08T18:02:16.331Z,36.30
2017-06-08T18:04:43.787Z,36.70
2017-06-08T18:07:11.343Z,36.50
2017-06-08T18:09:38.802Z,36.80
2017-06-08T18:12:06.251Z,36.20
2017-06-08T18:14:33.734Z,37.20
2017-06-08T18:17:01.987Z,37.30
2017-06-08T18:19:29.447Z,37.30
2017-06-08T18:21:56.994Z,37.00
2017-06-08T18:24:24.550Z,38.20
2017-06-08T18:26:52.002Z,37.90
2017-06-08T18:29:19.459Z,37.30
2017-06-08T18:31:46.902Z,39.30
2017-06-08T18:34:14.386Z,41.90
2017-06-08T18:36:41.947Z,42.50
2017-06-08T18:39:09.402Z,43.40
2017-06-08T18:41:36.859Z,43.50
2017-06-08T18:44:04.324Z,43.90
2017-06-08T18:46:31.798Z,43.50
2017-06-08T18:48:59.255Z,44.70
2017-06-08T18:51:27.495Z,44.70
2017-06-08T18:53:54.942Z,44.70
2017-06-08T18:56:22.410Z,44.70
2017-06-08T18:58:49.871Z,44.40
2017-06-08T19:01:17.328Z,44.80
2017-06-08T19:03:44.771Z,44.80
2017-06-08T19:06:12.223Z,45.00
2017-06-08T19:08:39.786Z,45.10
2017-06-08T19:11:07.347Z,45.80
2017-06-08T19:13:34.799Z,45.70
2017-06-08T19:16:02.269Z,45.80
2017-06-08T19:18:29.727Z,46.00
2017-06-08T19:20:57.178Z,45.80
2017-06-08T19:23:24.638Z,45.80
2017-06-08T19:25:52.103Z,46.00
2017-06-08T19:28:20.349Z,46.80
2017-06-08T19:30:47.807Z,46.20
2017-06-08T19:33:15.256Z,46.50
2017-06-08T19:35:42.711Z,46.80
2017-06-08T19:38:10.168Z,46.80
2017-06-08T19:40:37.619Z,47.30
2017-06-08T19:43:05.071Z,47.50
2017-06-08T19:45:32.559Z,47.60
2017-06-08T19:48:00.018Z,47.60
2017-06-08T19:50:27.574Z,49.80
2017-06-08T19:52:55.035Z,49.90
2017-06-08T19:55:22.491Z,49.60
2017-06-08T19:57:49.947Z,48.80
2017-06-08T20:00:17.402Z,50.10
2017-06-08T20:02:44.847Z,50.30
2017-06-08T20:05:12.299Z,49.90
2017-06-08T20:07:39.750Z,50.60
2017-06-08T20:10:07.210Z,52.60
2017-06-08T20:12:34.667Z,52.40
2017-06-08T20:15:02.240Z,51.80
2017-06-08T20:17:29.694Z,53.70
2017-06-08T20:19:57.174Z,53.10
2017-06-08T20:22:25.392Z,55.10
2017-06-08T20:24:52.857Z,55.00
2017-06-08T20:27:20.308Z,55.90
2017-06-08T20:29:47.767Z,55.60
2017-06-08T20:32:15.252Z,57.30
2017-06-08T20:34:42.706Z,58.10
2017-06-08T20:37:10.166Z,58.60
2017-06-08T20:39:37.722Z,59.30
2017-06-08T20:42:05.181Z,59.10
2017-06-08T20:44:32.643Z,61.30
2017-06-08T20:47:00.103Z,62.90
2017-06-08T20:49:28.336Z,64.30
2017-06-08T20:51:55.801Z,64.10
2017-06-08T20:54:23.267Z,62.70
2017-06-08T20:56:50.738Z,63.90
2017-06-08T20:59:18.296Z,63.80
2017-06-08T21:01:45.847Z,63.00
2017-06-08T21:04:13.316Z,62.40
2017-06-08T21:06:40.871Z,61.00
2017-06-08T21:09:08.438Z,63.10
2017-06-08T21:11:35.986Z,62.80
2017-06-08T21:14:03.542Z,63.60
2017-06-08T21:16:31.010Z,64.60
2017-06-08T21:18:58.559Z,63.60
2017-06-08T21:21:26.115Z,62.90
2017-06-08T21:23:53.582Z,61.50
2017-06-08T21:26:21.810Z,60.70
2017-06-08T21:28:49.304Z,60.30
2017-06-08T21:31:16.866Z,61.00
2017-06-08T21:33:44.424Z,60.50
2017-06-08T21:36:12.611Z,64.10
2017-06-08T21:38:40.975Z,64.70
2017-06-08T21:41:08.530Z,65.10
2017-06-08T21:43:35.990Z,65.60
2017-06-08T21:46:03.454Z,65.70
2017-06-08T21:48:31.687Z,64.30
2017-06-08T21:50:59.154Z,64.20
2017-06-08T21:53:26.614Z,65.60
2017-06-08T21:55:54.079Z,66.60
2017-06-08T21:58:21.647Z,64.60
2017-06-08T22:02:36.874Z,63.40
2017-06-08T22:05:04.347Z,67.50
2017-06-08T22:07:31.812Z,66.40
2017-06-08T22:09:59.273Z,66.40
2017-06-08T22:12:26.726Z,67.20
2017-06-08T22:14:54.187Z,68.40
2017-06-08T22:17:21.647Z,68.60
2017-06-08T22:19:49.099Z,71.20
2017-06-08T22:22:16.563Z,68.20
2017-06-08T22:24:44.038Z,69.00
2017-06-08T22:27:11.507Z,66.80
2017-06-08T22:29:39.051Z,65.70
2017-06-08T22:32:06.607Z,64.60
2017-06-08T22:34:34.072Z,63.70
2017-06-08T22:37:01.628Z,63.50
2017-06-08T22:39:29.083Z,63.70
2017-06-08T22:41:56.637Z,64.70
2017-06-08T22:44:24.099Z,67.70
2017-06-08T22:46:51.555Z,66.00
2017-06-08T22:49:19.102Z,64.90
2017-06-08T22:51:46.567Z,65.30
2017-06-08T22:54:14.021Z,66.30
2017-06-08T22:56:41.583Z,65.00
2017-06-08T22:59:09.042Z,65.20
2017-06-08T23:01:36.508Z,65.40
2017-06-08T23:04:03.963Z,65.40
2017-06-08T23:06:31.518Z,65.90
2017-06-08T23:08:58.979Z,65.40
2017-06-08T23:11:27.208Z,65.90
2017-06-08T23:13:54.676Z,65.90
2017-06-08T23:16:22.155Z,69.70
2017-06-08T23:18:49.638Z,70.30
2017-06-08T23:21:17.870Z,68.80
2017-06-08T23:23:45.446Z,68.70
2017-06-08T23:26:12.898Z,68.10
2017-06-08T23:28:40.450Z,67.10
2017-06-08T23:31:08.018Z,66.60
2017-06-08T23:33:35.576Z,68.50
2017-06-08T23:36:03.136Z,66.40
2017-06-08T23:38:30.602Z,67.50
2017-06-08T23:40:58.830Z,74.00
2017-06-08T23:43:26.295Z,73.20
2017-06-08T23:45:53.778Z,76.80
2017-06-08T23:48:21.340Z,78.30
2017-06-08T23:50:48.903Z,77.00
2017-06-08T23:53:16.468Z,77.40
2017-06-08T23:55:44.691Z,74.50
2017-06-08T23:58:12.151Z,74.50
